createdAt,value
2019-03-21T00:00:28.352Z,28.38
2019-03-21T00:02:57.886Z,29.25
2019-03-21T00:05:30.016Z,29.60
2019-03-21T00:07:59.462Z,25.72
2019-03-21T00:10:32.029Z,27.15
2019-03-21T00:13:01.773Z,26.75
2019-03-21T00:15:40.283Z,25.17
2019-03-21T00:18:12.614Z,25.80
2019-03-21T00:20:42.123Z,24.85
2019-03-21T00:23:11.689Z,24.45
2019-03-21T00:25:41.136Z,26.65
2019-03-21T00:28:10.634Z,28.75
2019-03-21T00:30:40.149Z,28.35
2019-03-21T00:33:09.604Z,28.93
2019-03-21T00:35:39.157Z,31.15
2019-03-21T00:38:08.656Z,29.50
2019-03-21T00:40:43.770Z,33.38
2019-03-21T00:43:13.286Z,30.05
2019-03-21T00:45:42.905Z,31.23
2019-03-21T00:48:16.340Z,34.80
2019-03-21T00:50:45.929Z,33.63
2019-03-21T00:53:15.514Z,34.43
2019-03-21T00:55:48.407Z,32.33
2019-03-21T00:58:17.903Z,32.08
2019-03-21T01:00:53.410Z,33.88
2019-03-21T01:03:22.893Z,32.38
2019-03-21T01:05:52.408Z,36.70
2019-03-21T01:08:21.878Z,33.57
2019-03-21T01:10:52.245Z,34.70
2019-03-21T01:13:22.233Z,35.92
2019-03-21T01:15:51.781Z,33.78
2019-03-21T01:18:21.267Z,33.28
2019-03-21T01:20:51.816Z,35.30
2019-03-21T01:23:21.297Z,37.33
2019-03-21T01:25:54.113Z,34.03
2019-03-21T01:28:23.559Z,38.85
2019-03-21T01:30:53.039Z,37.20
2019-03-21T01:33:22.488Z,34.95
2019-03-21T01:35:52.052Z,35.88
2019-03-21T01:38:21.497Z,34.98
2019-03-21T01:40:58.990Z,38.02
2019-03-21T01:43:28.492Z,35.43
2019-03-21T01:45:59.213Z,33.90
2019-03-21T01:48:28.789Z,32.40
2019-03-21T01:50:58.287Z,35.28
2019-03-21T01:53:27.748Z,33.25
2019-03-21T01:55:57.302Z,38.33
2019-03-21T01:58:26.913Z,35.88
2019-03-21T02:00:57.443Z,39.40
2019-03-21T02:03:26.988Z,37.75
2019-03-21T02:05:56.441Z,38.17
2019-03-21T02:08:25.925Z,36.55
2019-03-21T02:10:55.572Z,39.30
2019-03-21T02:13:25.423Z,39.78
2019-03-21T02:15:54.864Z,37.78
2019-03-21T02:18:24.358Z,37.60
2019-03-21T02:20:53.874Z,36.95
2019-03-21T02:23:23.597Z,35.88
2019-03-21T02:25:53.153Z,34.98
2019-03-21T02:28:22.607Z,37.48
2019-03-21T02:30:55.125Z,36.95
2019-03-21T02:33:35.362Z,36.53
2019-03-21T02:36:10.390Z,34.38
2019-03-21T02:38:39.885Z,37.60
2019-03-21T02:41:12.269Z,36.17
2019-03-21T02:43:41.826Z,36.60
2019-03-21T02:46:11.278Z,38.38
2019-03-21T02:48:40.785Z,37.80
2019-03-21T02:51:10.215Z,35.38
2019-03-21T02:53:40.152Z,35.43
2019-03-21T02:56:17.361Z,37.00
2019-03-21T02:58:46.810Z,34.55
2019-03-21T03:01:16.299Z,40.25
2019-03-21T03:03:45.746Z,35.17
2019-03-21T03:06:15.222Z,36.20
2019-03-21T03:08:44.703Z,36.00
2019-03-21T03:11:22.212Z,38.20
2019-03-21T03:13:52.079Z,35.10
2019-03-21T03:16:23.200Z,38.30
2019-03-21T03:18:52.650Z,34.98
2019-03-21T03:21:22.124Z,36.58
2019-03-21T03:23:51.586Z,37.67
2019-03-21T03:26:21.062Z,34.43
2019-03-21T03:28:50.531Z,35.80
2019-03-21T03:31:20.090Z,34.60
2019-03-21T03:33:49.549Z,36.53
2019-03-21T03:36:19.050Z,35.23
2019-03-21T03:38:48.555Z,34.35
2019-03-21T03:41:20.165Z,35.92
2019-03-21T03:43:49.814Z,34.43
2019-03-21T03:46:19.368Z,33.37
2019-03-21T03:48:48.851Z,36.75
2019-03-21T03:51:18.520Z,35.53
2019-03-21T03:53:47.966Z,38.83
2019-03-21T03:56:17.437Z,36.93
2019-03-21T03:58:55.758Z,38.00
2019-03-21T04:01:25.232Z,35.90
2019-03-21T04:03:54.775Z,38.67
2019-03-21T04:06:24.325Z,36.88
2019-03-21T04:08:53.825Z,35.03
2019-03-21T04:11:23.758Z,36.98
2019-03-21T04:13:53.286Z,37.17
2019-03-21T04:16:22.764Z,37.88
2019-03-21T04:18:52.238Z,36.60
2019-03-21T04:21:21.749Z,35.10
2019-03-21T04:23:51.196Z,38.00
2019-03-21T04:26:32.874Z,40.00
2019-03-21T04:29:02.336Z,37.10
2019-03-21T04:31:31.824Z,38.05
2019-03-21T04:34:04.305Z,36.98
2019-03-21T04:36:37.107Z,38.50
2019-03-21T04:39:13.901Z,37.75
2019-03-21T04:41:45.762Z,40.40
2019-03-21T04:44:22.499Z,38.27
2019-03-21T04:46:53.401Z,35.80
2019-03-21T04:49:23.477Z,36.17
2019-03-21T04:51:53.040Z,37.42
2019-03-21T04:54:22.526Z,37.13
2019-03-21T04:56:52.028Z,37.65
2019-03-21T04:59:21.550Z,37.40
2019-03-21T05:01:51.131Z,41.83
2019-03-21T05:04:20.613Z,41.85
2019-03-21T05:06:50.152Z,36.73
2019-03-21T05:09:19.591Z,37.08
2019-03-21T05:11:49.074Z,36.53
2019-03-21T05:14:19.596Z,37.70
2019-03-21T05:16:49.170Z,38.38
2019-03-21T05:19:18.611Z,44.27
2019-03-21T05:21:48.103Z,36.75
2019-03-21T05:24:17.576Z,36.93
2019-03-21T05:26:47.081Z,40.05
2019-03-21T05:29:16.790Z,38.78
2019-03-21T05:31:46.295Z,36.98
2019-03-21T05:34:15.983Z,40.92
2019-03-21T05:36:45.485Z,36.70
2019-03-21T05:39:15.000Z,38.55
2019-03-21T05:41:44.826Z,37.15
2019-03-21T05:44:23.153Z,36.17
2019-03-21T05:46:52.629Z,36.93
2019-03-21T05:49:22.142Z,37.90
2019-03-21T05:51:51.577Z,38.73
2019-03-21T05:54:21.057Z,36.42
2019-03-21T05:56:50.544Z,41.00
2019-03-21T05:59:19.994Z,40.35
2019-03-21T06:01:49.471Z,38.43
2019-03-21T06:04:18.955Z,37.38
2019-03-21T06:06:55.447Z,37.58
2019-03-21T06:09:24.892Z,36.73
2019-03-21T06:11:57.575Z,39.23
2019-03-21T06:14:27.554Z,48.95
2019-03-21T06:16:57.049Z,39.70
2019-03-21T06:19:29.582Z,39.63
2019-03-21T06:22:14.195Z,38.67
2019-03-21T06:24:49.556Z,37.93
2019-03-21T06:27:27.063Z,39.08
2019-03-21T06:29:56.905Z,40.12
2019-03-21T06:32:27.287Z,36.08
2019-03-21T06:34:57.520Z,40.10
2019-03-21T06:37:28.966Z,36.17
2019-03-21T06:39:58.825Z,40.80
2019-03-21T06:42:28.299Z,41.30
2019-03-21T06:44:57.787Z,40.40
2019-03-21T06:47:27.561Z,41.90
2019-03-21T06:49:57.006Z,42.43
2019-03-21T06:52:26.528Z,42.98
2019-03-21T06:54:56.055Z,45.78
2019-03-21T06:57:25.566Z,42.98
2019-03-21T06:59:55.041Z,49.42
2019-03-21T07:02:24.676Z,42.35
2019-03-21T07:04:54.241Z,38.73
2019-03-21T07:07:24.323Z,43.30
2019-03-21T07:09:53.803Z,45.40
2019-03-21T07:12:23.287Z,40.73
2019-03-21T07:14:52.767Z,43.25
2019-03-21T07:17:23.082Z,44.35
2019-03-21T07:19:52.715Z,38.58
2019-03-21T07:22:22.173Z,43.90
2019-03-21T07:24:51.783Z,43.70
2019-03-21T07:27:21.261Z,44.80
2019-03-21T07:29:50.718Z,43.00
2019-03-21T07:32:20.267Z,45.03
2019-03-21T07:34:49.742Z,42.48
2019-03-21T07:37:19.229Z,47.38
2019-03-21T07:39:48.675Z,43.98
2019-03-21T07:42:18.152Z,47.33
2019-03-21T07:44:47.635Z,41.48
2019-03-21T07:47:17.127Z,44.50
2019-03-21T07:49:46.644Z,42.35
2019-03-21T07:52:16.140Z,43.45
2019-03-21T07:54:45.653Z,46.05
2019-03-21T07:57:15.140Z,42.70
2019-03-21T07:59:44.588Z,44.08
2019-03-21T08:02:14.082Z,39.65
2019-03-21T08:04:43.524Z,43.52
2019-03-21T08:07:13.141Z,40.25
2019-03-21T08:09:42.739Z,39.95
2019-03-21T08:12:12.308Z,42.43
2019-03-21T08:14:41.780Z,38.55
2019-03-21T08:17:11.319Z,41.08
2019-03-21T08:19:40.923Z,42.03
2019-03-21T08:22:10.380Z,42.40
2019-03-21T08:24:39.861Z,39.48
2019-03-21T08:27:09.361Z,45.60
2019-03-21T08:29:38.846Z,38.53
2019-03-21T08:32:08.298Z,40.20
2019-03-21T08:34:37.814Z,40.35
2019-03-21T08:37:07.347Z,40.80
2019-03-21T08:39:36.789Z,39.42
2019-03-21T08:42:06.291Z,41.23
2019-03-21T08:44:35.745Z,39.03
2019-03-21T08:47:05.404Z,40.00
2019-03-21T08:49:34.897Z,39.27
2019-03-21T08:52:04.437Z,36.28
2019-03-21T08:54:35.048Z,39.13
2019-03-21T08:57:04.731Z,39.60
2019-03-21T08:59:34.302Z,38.85
2019-03-21T09:02:04.579Z,40.55
2019-03-21T09:04:34.032Z,38.73
2019-03-21T09:07:04.633Z,38.15
2019-03-21T09:09:34.108Z,38.40
2019-03-21T09:12:04.594Z,40.38
2019-03-21T09:14:36.699Z,40.60
2019-03-21T09:17:06.397Z,38.63
2019-03-21T09:19:35.901Z,38.05
2019-03-21T09:22:05.470Z,40.63
2019-03-21T09:24:34.906Z,42.73
2019-03-21T09:27:04.651Z,39.47
2019-03-21T09:29:34.173Z,40.90
2019-03-21T09:32:04.563Z,39.83
2019-03-21T09:34:34.126Z,40.00
2019-03-21T09:37:04.565Z,38.35
2019-03-21T09:39:34.084Z,39.58
2019-03-21T09:42:04.563Z,42.15
2019-03-21T09:44:34.041Z,41.37
2019-03-21T09:47:04.589Z,40.20
2019-03-21T09:49:34.117Z,46.23
2019-03-21T09:52:04.556Z,42.00
2019-03-21T09:54:34.096Z,42.43
2019-03-21T09:57:04.429Z,42.93
2019-03-21T09:59:33.960Z,40.88
2019-03-21T10:02:04.454Z,42.03
2019-03-21T10:04:33.893Z,40.30
2019-03-21T10:07:04.462Z,42.28
2019-03-21T10:09:33.953Z,40.52
2019-03-21T10:12:04.516Z,43.95
2019-03-21T10:14:34.239Z,43.60
2019-03-21T10:17:04.604Z,44.55
2019-03-21T10:19:35.088Z,40.80
2019-03-21T10:22:04.581Z,43.15
2019-03-21T10:24:34.213Z,44.75
2019-03-21T10:27:04.589Z,42.10
2019-03-21T10:29:34.077Z,44.05
2019-03-21T10:32:13.914Z,41.10
2019-03-21T10:34:35.601Z,43.02
2019-03-21T10:37:05.081Z,43.78
2019-03-21T10:39:34.580Z,40.75
2019-03-21T10:42:04.434Z,42.17
2019-03-21T10:44:33.924Z,38.70
2019-03-21T10:47:04.468Z,41.37
2019-03-21T10:49:34.076Z,41.63
2019-03-21T10:52:04.541Z,46.05
2019-03-21T10:54:34.036Z,41.65
2019-03-21T10:57:04.667Z,40.58
2019-03-21T10:59:34.117Z,46.63
2019-03-21T11:02:07.590Z,46.50
2019-03-21T11:04:35.799Z,42.98
2019-03-21T11:07:04.116Z,40.30
2019-03-21T11:09:33.623Z,42.43
2019-03-21T11:12:03.155Z,44.35
2019-03-21T11:14:32.633Z,48.13
2019-03-21T11:17:02.113Z,46.02
2019-03-21T11:19:31.593Z,44.80
2019-03-21T11:22:06.320Z,41.60
2019-03-21T11:24:33.179Z,44.20
2019-03-21T11:27:03.136Z,41.55
2019-03-21T11:29:32.598Z,44.40
2019-03-21T11:32:02.097Z,42.80
2019-03-21T11:34:32.208Z,43.80
2019-03-21T11:37:01.732Z,45.85
2019-03-21T11:39:31.229Z,43.83
2019-03-21T11:42:00.722Z,44.03
2019-03-21T11:44:30.363Z,44.40
2019-03-21T11:46:59.818Z,48.23
2019-03-21T11:49:29.364Z,46.10
2019-03-21T11:51:58.876Z,45.43
2019-03-21T11:54:28.414Z,46.45
2019-03-21T11:56:57.927Z,42.75
2019-03-21T11:59:41.371Z,46.08
2019-03-21T12:01:58.589Z,46.33
2019-03-21T12:04:30.855Z,46.63
2019-03-21T12:07:00.341Z,43.15
2019-03-21T12:09:29.816Z,48.83
2019-03-21T12:11:59.263Z,43.08
2019-03-21T12:14:28.756Z,46.95
2019-03-21T12:16:58.251Z,47.93
2019-03-21T12:19:27.878Z,42.95
2019-03-21T12:21:57.361Z,46.15
2019-03-21T12:24:26.810Z,42.27
2019-03-21T12:26:56.322Z,44.15
2019-03-21T12:29:25.906Z,46.23
2019-03-21T12:31:55.395Z,44.35
2019-03-21T12:34:24.849Z,46.10
2019-03-21T12:36:54.331Z,45.60
2019-03-21T12:39:23.796Z,41.73
2019-03-21T12:41:53.349Z,41.17
2019-03-21T12:44:22.898Z,44.05
2019-03-21T12:46:52.387Z,42.88
2019-03-21T12:49:21.940Z,43.75
2019-03-21T12:51:51.466Z,41.63
2019-03-21T12:54:20.917Z,39.75
2019-03-21T12:56:52.972Z,44.05
2019-03-21T12:59:21.695Z,41.92
2019-03-21T13:01:51.223Z,42.20
2019-03-21T13:04:20.711Z,37.35
2019-03-21T13:06:50.201Z,37.65
2019-03-21T13:09:19.979Z,37.93
2019-03-21T13:11:49.458Z,43.93
2019-03-21T13:14:18.980Z,40.60
2019-03-21T13:16:48.541Z,39.30
2019-03-21T13:19:18.033Z,35.83
2019-03-21T13:21:47.513Z,40.63
2019-03-21T13:24:19.463Z,37.65
2019-03-21T13:26:48.339Z,44.95
2019-03-21T13:29:17.848Z,54.60
2019-03-21T13:31:47.337Z,53.03
2019-03-21T13:34:16.811Z,47.67
2019-03-21T13:36:46.314Z,39.78
2019-03-21T13:39:15.763Z,38.95
2019-03-21T13:41:45.255Z,41.10
2019-03-21T13:44:14.741Z,40.58
2019-03-21T13:46:44.226Z,42.20
2019-03-21T13:49:13.685Z,40.25
2019-03-21T13:51:43.187Z,43.05
2019-03-21T13:54:12.678Z,45.12
2019-03-21T13:56:42.173Z,42.75
2019-03-21T13:59:11.670Z,47.00
2019-03-21T14:01:41.161Z,40.95
2019-03-21T14:04:10.695Z,45.95
2019-03-21T14:06:40.185Z,43.10
2019-03-21T14:09:09.925Z,45.05
2019-03-21T14:11:39.431Z,42.38
2019-03-21T14:14:09.869Z,44.00
2019-03-21T14:16:39.429Z,43.30
2019-03-21T14:19:08.914Z,50.40
2019-03-21T14:21:39.508Z,44.05
2019-03-21T14:24:09.104Z,48.68
2019-03-21T14:26:39.619Z,43.33
2019-03-21T14:29:12.844Z,44.10
2019-03-21T14:31:41.414Z,44.18
2019-03-21T14:34:10.879Z,47.78
2019-03-21T14:36:40.377Z,43.93
2019-03-21T14:39:09.865Z,47.65
2019-03-21T14:41:39.360Z,48.03
2019-03-21T14:44:09.046Z,39.18
2019-03-21T14:46:38.488Z,44.93
2019-03-21T14:49:08.083Z,46.40
2019-03-21T14:51:37.552Z,46.02
2019-03-21T14:54:07.069Z,45.05
2019-03-21T14:56:36.546Z,40.73
2019-03-21T14:59:06.102Z,42.80
2019-03-21T15:01:35.610Z,39.20
2019-03-21T15:04:05.114Z,37.08
2019-03-21T15:06:34.662Z,42.17
2019-03-21T15:09:06.379Z,36.85
2019-03-21T15:11:37.980Z,35.40
2019-03-21T15:14:07.447Z,39.75
2019-03-21T15:16:36.996Z,40.70
2019-03-21T15:19:06.878Z,45.03
2019-03-21T15:21:36.370Z,45.52
2019-03-21T15:24:05.933Z,44.27
2019-03-21T15:26:35.545Z,49.55
2019-03-21T15:29:05.098Z,44.88
2019-03-21T15:31:34.546Z,39.85
2019-03-21T15:34:04.541Z,36.00
2019-03-21T15:36:34.033Z,39.78
2019-03-21T15:39:07.344Z,39.32
2019-03-21T15:41:38.130Z,39.30
2019-03-21T15:44:07.721Z,42.40
2019-03-21T15:46:38.785Z,41.02
2019-03-21T15:49:08.502Z,40.63
2019-03-21T15:51:38.344Z,46.65
2019-03-21T15:54:07.916Z,47.45
2019-03-21T15:56:37.434Z,45.40
2019-03-21T15:59:06.928Z,46.92
2019-03-21T16:01:36.440Z,43.05
2019-03-21T16:04:06.013Z,46.23
2019-03-21T16:06:35.526Z,47.98
2019-03-21T16:09:06.967Z,45.85
2019-03-21T16:11:36.391Z,46.55
2019-03-21T16:14:06.040Z,47.00
2019-03-21T16:16:35.515Z,50.17
2019-03-21T16:19:05.194Z,49.48
2019-03-21T16:21:34.638Z,51.60
2019-03-21T16:24:05.772Z,51.18
2019-03-21T16:26:37.142Z,50.75
2019-03-21T16:29:06.642Z,53.08
2019-03-21T16:31:36.213Z,52.70
2019-03-21T16:34:05.693Z,52.88
2019-03-21T16:36:35.182Z,52.25
2019-03-21T16:39:06.808Z,58.35
2019-03-21T16:41:36.254Z,54.95
2019-03-21T16:44:05.946Z,53.92
2019-03-21T16:46:35.366Z,56.17
2019-03-21T16:49:04.986Z,51.33
2019-03-21T16:51:34.430Z,52.40
2019-03-21T16:54:16.242Z,58.13
2019-03-21T16:56:36.878Z,52.23
2019-03-21T16:59:06.384Z,56.13
2019-03-21T17:01:35.884Z,55.90
2019-03-21T17:04:05.356Z,57.55
2019-03-21T17:06:34.827Z,57.90
2019-03-21T17:09:07.297Z,57.27
2019-03-21T17:11:36.791Z,56.77
2019-03-21T17:14:07.119Z,55.13
2019-03-21T17:16:36.679Z,55.95
2019-03-21T17:19:06.240Z,60.63
2019-03-21T17:21:35.866Z,55.90
2019-03-21T17:24:07.449Z,55.52
2019-03-21T17:26:37.417Z,57.48
2019-03-21T17:29:06.930Z,54.90
2019-03-21T17:31:36.403Z,57.27
2019-03-21T17:34:06.042Z,56.10
2019-03-21T17:36:35.705Z,52.75
2019-03-21T17:39:08.079Z,55.67
2019-03-21T17:41:37.742Z,54.30
2019-03-21T17:44:07.770Z,56.98
2019-03-21T17:46:37.232Z,58.10
2019-03-21T17:49:06.733Z,57.87
2019-03-21T17:51:36.204Z,57.03
2019-03-21T17:54:05.813Z,56.65
2019-03-21T17:56:35.363Z,61.10
2019-03-21T17:59:04.879Z,59.38
2019-03-21T18:01:35.411Z,56.92
2019-03-21T18:04:05.557Z,57.10
2019-03-21T18:06:36.163Z,59.80
2019-03-21T18:09:08.091Z,59.08
2019-03-21T18:11:39.097Z,55.30
2019-03-21T18:14:08.872Z,62.55
2019-03-21T18:16:38.576Z,58.48
2019-03-21T18:19:08.311Z,56.15
2019-03-21T18:21:37.905Z,59.75
2019-03-21T18:24:07.699Z,59.87
2019-03-21T18:26:37.206Z,57.48
2019-03-21T18:29:06.778Z,60.67
2019-03-21T18:31:36.345Z,59.10
2019-03-21T18:34:05.843Z,55.95
2019-03-21T18:36:35.578Z,63.02
2019-03-21T18:39:07.107Z,62.50
2019-03-21T18:41:36.674Z,61.33
2019-03-21T18:44:06.318Z,59.18
2019-03-21T18:46:36.256Z,60.65
2019-03-21T18:49:06.078Z,65.50
2019-03-21T18:51:35.643Z,67.22
2019-03-21T18:54:05.288Z,62.93
2019-03-21T18:56:34.795Z,61.45
2019-03-21T18:59:04.621Z,64.78
2019-03-21T19:01:34.133Z,63.15
2019-03-21T19:04:04.578Z,65.35
2019-03-21T19:06:34.154Z,61.83
2019-03-21T19:09:07.152Z,66.44
2019-03-21T19:11:36.706Z,67.37
2019-03-21T19:14:06.230Z,67.65
2019-03-21T19:16:36.959Z,70.12
2019-03-21T19:19:06.468Z,68.22
2019-03-21T19:21:35.975Z,63.17
2019-03-21T19:24:05.579Z,68.30
2019-03-21T19:26:35.659Z,69.17
2019-03-21T19:29:05.409Z,69.17
2019-03-21T19:31:35.017Z,66.57
2019-03-21T19:34:04.535Z,70.70
2019-03-21T19:36:34.071Z,65.95
2019-03-21T19:39:07.318Z,66.77
2019-03-21T19:41:36.899Z,72.75
2019-03-21T19:44:06.531Z,68.95
2019-03-21T19:46:35.979Z,67.05
2019-03-21T19:49:05.567Z,72.25
2019-03-21T19:51:35.029Z,65.05
2019-03-21T19:54:04.945Z,72.15
2019-03-21T19:56:34.418Z,68.72
2019-03-21T19:59:04.485Z,69.92
2019-03-21T20:01:34.029Z,71.20
2019-03-21T20:04:04.549Z,70.05
2019-03-21T20:06:34.076Z,73.20
2019-03-21T20:09:06.526Z,67.58
2019-03-21T20:11:36.017Z,71.42
2019-03-21T20:14:05.548Z,79.05
2019-03-21T20:16:35.291Z,74.03
2019-03-21T20:19:04.950Z,75.32
2019-03-21T20:21:34.383Z,74.27
2019-03-21T20:24:04.569Z,74.97
2019-03-21T20:26:34.133Z,78.40
2019-03-21T20:29:04.951Z,78.67
2019-03-21T20:31:34.848Z,71.62
2019-03-21T20:34:05.514Z,72.00
2019-03-21T20:36:36.167Z,74.42
2019-03-21T20:39:08.051Z,76.85
2019-03-21T20:41:37.642Z,81.65
2019-03-21T20:44:14.984Z,75.55
2019-03-21T20:46:39.278Z,78.85
2019-03-21T20:49:09.196Z,78.92
2019-03-21T20:51:38.820Z,75.15
2019-03-21T20:54:08.330Z,80.60
2019-03-21T20:56:37.916Z,73.00
2019-03-21T20:59:07.512Z,80.07
2019-03-21T21:01:37.040Z,75.03
2019-03-21T21:04:06.677Z,83.72
2019-03-21T21:06:36.193Z,76.92
2019-03-21T21:09:07.411Z,84.25
2019-03-21T21:11:37.494Z,77.12
2019-03-21T21:14:08.209Z,81.97
2019-03-21T21:16:37.711Z,77.42
2019-03-21T21:19:07.242Z,78.10
2019-03-21T21:21:36.928Z,81.17
2019-03-21T21:24:06.611Z,78.57
2019-03-21T21:26:36.100Z,82.55
2019-03-21T21:29:06.152Z,81.40
2019-03-21T21:31:35.838Z,80.28
2019-03-21T21:34:05.691Z,80.65
2019-03-21T21:36:35.275Z,77.85
2019-03-21T21:39:07.237Z,79.47
2019-03-21T21:41:37.122Z,80.10
2019-03-21T21:44:06.769Z,79.67
2019-03-21T21:46:36.308Z,76.45
2019-03-21T21:49:05.978Z,80.28
2019-03-21T21:51:35.465Z,76.85
2019-03-21T21:54:05.017Z,83.65
2019-03-21T21:56:34.488Z,78.65
2019-03-21T21:59:04.525Z,79.27
2019-03-21T22:01:34.051Z,77.15
2019-03-21T22:04:05.279Z,81.47
2019-03-21T22:06:34.801Z,74.50
2019-03-21T22:09:06.107Z,84.58
2019-03-21T22:11:35.741Z,73.45
2019-03-21T22:14:05.571Z,76.75
2019-03-21T22:16:35.020Z,77.25
2019-03-21T22:19:04.680Z,72.30
2019-03-21T22:21:34.190Z,79.90
2019-03-21T22:24:04.569Z,81.00
2019-03-21T22:26:34.012Z,71.70
2019-03-21T22:29:04.429Z,83.45
2019-03-21T22:31:33.917Z,74.72
2019-03-21T22:34:04.531Z,83.62
2019-03-21T22:36:34.031Z,76.33
2019-03-21T22:39:06.540Z,73.12
2019-03-21T22:41:36.084Z,73.15
2019-03-21T22:44:06.019Z,76.45
2019-03-21T22:46:35.581Z,77.95
2019-03-21T22:49:05.051Z,75.72
2019-03-21T22:51:34.507Z,79.40
2019-03-21T22:54:04.487Z,76.42
2019-03-21T22:56:41.077Z,73.05
2019-03-21T22:59:05.119Z,80.45
2019-03-21T23:01:34.651Z,79.60
2019-03-21T23:04:04.567Z,80.25
2019-03-21T23:06:35.099Z,79.12
2019-03-21T23:09:07.670Z,78.12
2019-03-21T23:11:37.202Z,75.22
2019-03-21T23:14:06.643Z,81.50
2019-03-21T23:16:36.207Z,79.85
2019-03-21T23:19:05.725Z,84.80
2019-03-21T23:21:35.199Z,82.50
2019-03-21T23:24:04.772Z,82.08
2019-03-21T23:26:34.319Z,78.63
2019-03-21T23:29:04.424Z,83.17
2019-03-21T23:31:34.039Z,85.97
2019-03-21T23:34:04.481Z,84.15
2019-03-21T23:36:34.965Z,83.07
2019-03-21T23:39:06.241Z,82.12
2019-03-21T23:41:35.741Z,85.67
2019-03-21T23:44:05.364Z,85.85
2019-03-21T23:46:34.902Z,83.95
2019-03-21T23:49:04.554Z,86.20
2019-03-21T23:51:34.205Z,89.35
2019-03-21T23:54:04.704Z,89.10
2019-03-21T23:56:34.174Z,84.03
2019-03-21T23:59:04.551Z,87.12
